createdAt,value
2022-11-11T00:00:39.099Z,0
2022-11-11T00:01:38.853Z,0
2022-11-11T00:02:39.474Z,0
2022-11-11T00:03:40.199Z,0
2022-11-11T00:04:39.655Z,0
2022-11-11T00:05:39.190Z,0
2022-11-11T00:06:39.363Z,0
2022-11-11T00:07:39.479Z,0
2022-11-11T00:08:39.371Z,0
2022-11-11T00:09:39.007Z,0
2022-11-11T00:10:39.266Z,0
2022-11-11T00:11:39.291Z,0
2022-11-11T00:12:39.303Z,0
2022-11-11T00:13:39.605Z,0
2022-11-11T00:14:39.338Z,0
2022-11-11T00:15:39.360Z,0
2022-11-11T00:16:39.388Z,0
2022-11-11T00:17:39.752Z,0
2022-11-11T00:18:39.485Z,0
2022-11-11T00:19:39.518Z,0
2022-11-11T00:20:48.233Z,0
2022-11-11T00:21:39.122Z,0
2022-11-11T00:22:39.648Z,0
2022-11-11T00:23:39.629Z,0
2022-11-11T00:24:39.697Z,0
2022-11-11T00:25:40.166Z,0
2022-11-11T00:26:47.707Z,0
2022-11-11T00:27:39.416Z,0
2022-11-11T00:28:39.662Z,0
2022-11-11T00:29:39.977Z,0
2022-11-11T00:30:39.628Z,0
2022-11-11T00:31:39.768Z,0
2022-11-11T00:32:40.029Z,0
2022-11-11T00:33:40.028Z,0
2022-11-11T00:34:39.795Z,0
2022-11-11T00:35:39.747Z,0
2022-11-11T00:36:44.403Z,0
2022-11-11T00:37:39.842Z,0
2022-11-11T00:38:39.809Z,0
2022-11-11T00:39:39.322Z,0
2022-11-11T00:40:40.094Z,0
2022-11-11T00:41:39.683Z,0
2022-11-11T00:42:39.952Z,0
2022-11-11T00:43:40.169Z,0
2022-11-11T00:44:39.476Z,0
2022-11-11T00:45:39.725Z,0
2022-11-11T00:46:40.058Z,0
2022-11-11T00:47:39.843Z,0
2022-11-11T00:48:39.812Z,0
2022-11-11T00:49:39.999Z,0
2022-11-11T00:50:40.080Z,0
2022-11-11T00:51:40.034Z,0
2022-11-11T00:52:40.623Z,0
2022-11-11T00:53:40.070Z,0
2022-11-11T00:54:39.955Z,0
2022-11-11T00:55:39.953Z,0
2022-11-11T00:56:40.344Z,0
2022-11-11T00:57:40.357Z,0
2022-11-11T00:58:40.510Z,0
2022-11-11T00:59:40.618Z,0
2022-11-11T01:00:40.616Z,0
2022-11-11T01:01:40.746Z,0
2022-11-11T01:02:40.569Z,0
2022-11-11T01:03:40.285Z,0
2022-11-11T01:04:40.623Z,0
2022-11-11T01:05:40.476Z,0
2022-11-11T01:06:40.703Z,0
2022-11-11T01:07:40.874Z,0
2022-11-11T01:08:40.832Z,0
2022-11-11T01:09:40.482Z,0
2022-11-11T01:10:41.193Z,0
2022-11-11T01:11:40.554Z,0
2022-11-11T01:12:40.669Z,0
2022-11-11T01:13:40.590Z,0
2022-11-11T01:14:40.121Z,0
2022-11-11T01:15:40.032Z,0
2022-11-11T01:16:40.566Z,0
2022-11-11T01:17:40.955Z,0
2022-11-11T01:18:40.626Z,0
2022-11-11T01:19:40.581Z,0
2022-11-11T01:20:40.927Z,0
2022-11-11T01:21:41.251Z,0
2022-11-11T01:22:40.474Z,0
2022-11-11T01:23:40.804Z,0
2022-11-11T01:24:41.232Z,0
2022-11-11T01:25:40.846Z,0
2022-11-11T01:26:41.188Z,0
2022-11-11T01:27:41.101Z,0
2022-11-11T01:28:40.971Z,0
2022-11-11T01:29:41.060Z,0
2022-11-11T01:30:41.269Z,0
2022-11-11T01:31:40.404Z,0
2022-11-11T01:32:41.270Z,0
2022-11-11T01:33:41.045Z,0
2022-11-11T01:34:40.800Z,0
2022-11-11T01:35:41.088Z,0
2022-11-11T01:36:41.071Z,0
2022-11-11T01:37:40.967Z,0
2022-11-11T01:38:40.815Z,0
2022-11-11T01:39:41.439Z,0
2022-11-11T01:40:41.661Z,0
2022-11-11T01:41:41.740Z,0
2022-11-11T01:42:40.983Z,0
2022-11-11T01:43:41.326Z,0
2022-11-11T01:44:41.568Z,0
2022-11-11T01:45:40.739Z,0
2022-11-11T01:46:40.904Z,0
2022-11-11T01:48:44.497Z,0
2022-11-11T01:49:44.728Z,0
2022-11-11T01:50:44.617Z,0
2022-11-11T01:51:44.036Z,0
2022-11-11T01:52:44.231Z,0
2022-11-11T01:53:44.573Z,0
2022-11-11T01:54:44.430Z,0
2022-11-11T01:55:44.717Z,0
2022-11-11T01:56:44.484Z,0
2022-11-11T01:57:44.783Z,0
2022-11-11T01:58:44.197Z,0
2022-11-11T01:59:44.862Z,0
2022-11-11T02:00:44.616Z,0
2022-11-11T02:01:44.918Z,0
2022-11-11T02:02:45.281Z,0
2022-11-11T02:03:44.701Z,0
2022-11-11T02:04:44.500Z,0
2022-11-11T02:05:44.604Z,0
2022-11-11T02:06:45.435Z,0
2022-11-11T02:07:45.245Z,0
2022-11-11T02:08:44.567Z,0
2022-11-11T02:09:44.703Z,0
2022-11-11T02:10:44.858Z,0
2022-11-11T02:11:45.126Z,0
2022-11-11T02:12:44.285Z,0
2022-11-11T02:13:45.050Z,0
2022-11-11T02:14:45.576Z,0
2022-11-11T02:15:45.302Z,0
2022-11-11T02:16:44.839Z,0
2022-11-11T02:17:44.800Z,0
2022-11-11T02:18:45.055Z,0
2022-11-11T02:19:45.275Z,0
2022-11-11T02:20:44.981Z,0
2022-11-11T02:21:44.853Z,0
2022-11-11T02:22:45.330Z,0
2022-11-11T02:23:45.155Z,0
2022-11-11T02:24:45.042Z,0
2022-11-11T02:25:45.214Z,0
2022-11-11T02:26:45.189Z,0
2022-11-11T02:27:45.462Z,0
2022-11-11T02:28:45.240Z,0
2022-11-11T02:29:45.319Z,0
2022-11-11T02:30:44.746Z,0
2022-11-11T02:31:45.611Z,0
2022-11-11T02:32:45.396Z,0
2022-11-11T02:33:45.332Z,0
2022-11-11T02:34:45.640Z,0
2022-11-11T02:35:45.132Z,0
2022-11-11T02:36:45.239Z,0
2022-11-11T02:37:45.439Z,0
2022-11-11T02:38:45.160Z,0
2022-11-11T02:40:10.617Z,0
2022-11-11T02:40:45.311Z,0
2022-11-11T02:41:45.510Z,0
2022-11-11T02:42:44.607Z,0
2022-11-11T02:43:45.745Z,0
2022-11-11T02:44:45.678Z,0
2022-11-11T02:45:45.495Z,0
2022-11-11T02:46:45.859Z,0
2022-11-11T02:47:45.572Z,0
2022-11-11T02:48:45.463Z,0
2022-11-11T02:49:45.201Z,0
2022-11-11T02:50:45.657Z,0
2022-11-11T02:51:45.782Z,0
2022-11-11T02:52:45.528Z,0
2022-11-11T02:53:45.559Z,0
2022-11-11T02:54:45.377Z,0
2022-11-11T02:55:45.746Z,0
2022-11-11T02:56:45.216Z,0
2022-11-11T02:57:45.105Z,0
2022-11-11T02:58:45.582Z,0
2022-11-11T02:59:45.792Z,0
2022-11-11T03:00:45.452Z,0
2022-11-11T03:01:46.415Z,0
2022-11-11T03:02:46.242Z,0
2022-11-11T03:03:46.334Z,0
2022-11-11T03:04:45.872Z,0
2022-11-11T03:05:45.948Z,0
2022-11-11T03:06:45.979Z,0
2022-11-11T03:07:46.123Z,0
2022-11-11T03:08:45.434Z,0
2022-11-11T03:09:46.373Z,0
2022-11-11T03:10:46.203Z,0
2022-11-11T03:11:45.735Z,0
2022-11-11T03:12:46.286Z,0
2022-11-11T03:13:45.729Z,0
2022-11-11T03:14:45.924Z,0
2022-11-11T03:15:46.210Z,0
2022-11-11T03:16:46.371Z,0
2022-11-11T03:17:46.510Z,0
2022-11-11T03:18:45.926Z,0
2022-11-11T03:19:46.145Z,0
2022-11-11T03:20:45.835Z,0
2022-11-11T03:23:00.553Z,0
2022-11-11T03:24:09.886Z,0
2022-11-11T03:25:10.417Z,0
2022-11-11T03:26:10.191Z,0
2022-11-11T03:27:09.942Z,0
2022-11-11T03:28:09.950Z,0
2022-11-11T03:29:10.226Z,0
2022-11-11T03:30:10.262Z,0
2022-11-11T03:31:11.753Z,0
2022-11-11T03:32:10.029Z,0
2022-11-11T03:33:10.673Z,0
2022-11-11T03:34:10.065Z,0
2022-11-11T03:35:10.706Z,0
2022-11-11T03:36:10.606Z,0
2022-11-11T03:37:10.618Z,0
2022-11-11T03:38:10.636Z,0
2022-11-11T03:39:10.137Z,0
2022-11-11T03:40:10.675Z,0
2022-11-11T03:41:10.691Z,0
2022-11-11T03:42:10.700Z,0
2022-11-11T03:43:12.361Z,0
2022-11-11T03:44:10.741Z,0
2022-11-11T03:45:10.249Z,0
2022-11-11T03:46:10.768Z,0
2022-11-11T03:47:11.028Z,0
2022-11-11T03:48:10.554Z,0
2022-11-11T03:49:10.931Z,0
2022-11-11T03:50:10.845Z,0
2022-11-11T03:51:10.974Z,0
2022-11-11T03:52:10.351Z,0
2022-11-11T03:53:10.386Z,0
2022-11-11T03:54:10.662Z,0
2022-11-11T03:55:10.401Z,0
2022-11-11T03:56:10.946Z,0
2022-11-11T03:57:10.701Z,0
2022-11-11T03:58:10.971Z,0
2022-11-11T03:59:10.991Z,0
2022-11-11T04:00:19.625Z,0
2022-11-11T04:01:10.777Z,0
2022-11-11T04:02:11.092Z,0
2022-11-11T04:03:11.291Z,0
2022-11-11T04:04:10.819Z,0
2022-11-11T04:05:11.218Z,0
2022-11-11T04:06:11.047Z,0
2022-11-11T04:07:11.247Z,0
2022-11-11T04:08:11.143Z,0
2022-11-11T04:09:10.905Z,0
2022-11-11T04:10:10.725Z,0
2022-11-11T04:11:11.197Z,0
2022-11-11T04:12:11.206Z,0
2022-11-11T04:13:11.228Z,0
2022-11-11T04:14:11.232Z,0
2022-11-11T04:15:11.005Z,0
2022-11-11T04:16:10.504Z,0
2022-11-11T04:17:11.300Z,0
2022-11-11T04:18:11.531Z,0
2022-11-11T04:19:11.572Z,0
2022-11-11T04:20:11.111Z,0
2022-11-11T04:21:11.229Z,0
2022-11-11T04:22:11.373Z,0
2022-11-11T04:23:11.523Z,0
2022-11-11T04:24:10.646Z,0
2022-11-11T04:25:10.914Z,0
2022-11-11T04:26:11.441Z,0
2022-11-11T04:27:10.955Z,0
2022-11-11T04:28:11.219Z,0
2022-11-11T04:29:11.490Z,0
2022-11-11T04:30:11.251Z,0
2022-11-11T04:31:11.545Z,0
2022-11-11T04:32:11.274Z,0
2022-11-11T04:33:11.084Z,0
2022-11-11T04:34:11.335Z,0
2022-11-11T04:35:11.833Z,0
2022-11-11T04:36:11.357Z,0
2022-11-11T04:37:10.983Z,0
2022-11-11T04:38:11.127Z,0
2022-11-11T04:39:11.778Z,0
2022-11-11T04:40:11.726Z,0
2022-11-11T04:41:11.459Z,0
2022-11-11T04:42:16.063Z,0
2022-11-11T04:43:11.481Z,0
2022-11-11T04:44:11.495Z,0
2022-11-11T04:45:11.279Z,0
2022-11-11T04:46:11.521Z,0
2022-11-11T04:47:11.281Z,0
2022-11-11T04:48:11.584Z,0
2022-11-11T04:49:11.842Z,0
2022-11-11T04:50:15.034Z,0
2022-11-11T04:51:11.353Z,0
2022-11-11T04:52:11.611Z,0
2022-11-11T04:53:12.019Z,0
2022-11-11T04:54:11.659Z,0
2022-11-11T04:55:11.802Z,0
2022-11-11T04:56:11.694Z,0
2022-11-11T04:57:11.965Z,0
2022-11-11T04:58:11.737Z,0
2022-11-11T04:59:12.013Z,0
2022-11-11T05:00:11.854Z,0
2022-11-11T05:01:12.034Z,0
2022-11-11T05:02:11.541Z,0
2022-11-11T05:03:11.828Z,0
2022-11-11T05:04:12.088Z,0
2022-11-11T05:05:11.840Z,0
2022-11-11T05:06:12.370Z,0
2022-11-11T05:07:12.434Z,0
2022-11-11T05:08:11.631Z,0
2022-11-11T05:09:11.767Z,0
2022-11-11T05:10:12.201Z,0
2022-11-11T05:11:12.101Z,0
2022-11-11T05:12:11.963Z,0
2022-11-11T05:13:12.255Z,0
2022-11-11T05:14:12.258Z,0
2022-11-11T05:15:12.011Z,0
2022-11-11T05:16:12.303Z,0
2022-11-11T05:17:12.043Z,0
2022-11-11T05:18:12.316Z,0
2022-11-11T05:19:12.344Z,0
2022-11-11T05:20:12.350Z,0
2022-11-11T05:21:12.102Z,0
2022-11-11T05:22:12.620Z,0
2022-11-11T05:23:12.144Z,0
2022-11-11T05:24:11.910Z,0
2022-11-11T05:25:12.287Z,0
2022-11-11T05:26:11.975Z,0
2022-11-11T05:27:12.640Z,0
2022-11-11T05:28:12.476Z,0
2022-11-11T05:29:12.503Z,0
2022-11-11T05:30:12.008Z,0
2022-11-11T05:31:12.531Z,0
2022-11-11T05:32:12.559Z,0
2022-11-11T05:33:12.050Z,0
2022-11-11T05:34:12.592Z,0
2022-11-11T05:35:12.591Z,0
2022-11-11T05:36:12.360Z,0
2022-11-11T05:37:12.362Z,0
2022-11-11T05:38:12.935Z,0
2022-11-11T05:39:12.662Z,0
2022-11-11T05:40:12.169Z,0
2022-11-11T05:41:12.568Z,0
2022-11-11T05:42:12.865Z,0
2022-11-11T05:43:12.849Z,0
2022-11-11T05:44:12.917Z,0
2022-11-11T05:45:12.518Z,0
2022-11-11T05:46:12.313Z,0
2022-11-11T05:47:12.537Z,0
2022-11-11T05:48:12.297Z,0
2022-11-11T05:49:12.580Z,0
2022-11-11T05:50:12.906Z,0
2022-11-11T05:51:12.612Z,0
2022-11-11T05:52:12.634Z,0
2022-11-11T05:53:12.644Z,0
2022-11-11T05:54:13.229Z,0
2022-11-11T05:55:12.157Z,0
2022-11-11T05:56:12.696Z,0
2022-11-11T05:57:12.817Z,0
2022-11-11T05:58:12.711Z,0
2022-11-11T05:59:13.111Z,0
2022-11-11T06:00:13.048Z,0
2022-11-11T06:01:13.055Z,0
2022-11-11T06:02:13.410Z,0
2022-11-11T06:03:13.079Z,0
2022-11-11T06:04:20.168Z,0
2022-11-11T06:05:12.587Z,0
2022-11-11T06:06:12.440Z,0
2022-11-11T06:07:13.512Z,0
2022-11-11T06:08:12.637Z,0
2022-11-11T06:09:12.390Z,0
2022-11-11T06:10:13.155Z,0
2022-11-11T06:11:12.937Z,0
2022-11-11T06:12:13.209Z,0
2022-11-11T06:13:13.133Z,0
2022-11-11T06:14:13.254Z,0
2022-11-11T06:15:13.137Z,0
2022-11-11T06:16:13.039Z,4
2022-11-11T06:17:12.928Z,4
2022-11-11T06:18:13.306Z,0
2022-11-11T06:19:13.127Z,4
2022-11-11T06:20:12.931Z,4
2022-11-11T06:21:13.123Z,8
2022-11-11T06:22:13.378Z,4
2022-11-11T06:23:12.877Z,8
2022-11-11T06:24:13.493Z,8
2022-11-11T06:25:12.928Z,8
2022-11-11T06:26:13.676Z,12
2022-11-11T06:27:12.937Z,8
2022-11-11T06:28:13.470Z,12
2022-11-11T06:29:13.365Z,16
2022-11-11T06:30:55.489Z,16
2022-11-11T06:31:13.405Z,20
2022-11-11T06:32:13.534Z,20
2022-11-11T06:33:13.056Z,16
2022-11-11T06:34:13.574Z,20
2022-11-11T06:35:13.341Z,20
2022-11-11T06:36:13.349Z,24
2022-11-11T06:37:13.379Z,28
2022-11-11T06:38:13.491Z,32
2022-11-11T06:39:13.157Z,32
2022-11-11T06:40:17.518Z,32
2022-11-11T06:41:13.189Z,32
2022-11-11T06:42:13.948Z,36
2022-11-11T06:43:13.727Z,40
2022-11-11T06:44:13.748Z,44
2022-11-11T06:45:13.882Z,48
2022-11-11T06:46:19.845Z,52
2022-11-11T06:47:13.911Z,56
2022-11-11T06:48:13.645Z,60
2022-11-11T06:49:13.571Z,64
2022-11-11T06:50:13.594Z,68
2022-11-11T06:51:13.868Z,76
2022-11-11T06:52:13.878Z,80
2022-11-11T06:53:13.897Z,88
2022-11-11T06:54:13.911Z,92
2022-11-11T06:55:13.922Z,96
2022-11-11T06:56:13.954Z,108
2022-11-11T06:57:16.006Z,112
2022-11-11T06:58:13.981Z,120
2022-11-11T06:59:13.996Z,124
2022-11-11T07:00:13.789Z,132
2022-11-11T07:01:14.672Z,136
2022-11-11T07:02:13.799Z,144
2022-11-11T07:03:13.927Z,152
2022-11-11T07:04:14.089Z,156
2022-11-11T07:05:14.097Z,164
2022-11-11T07:06:14.064Z,172
2022-11-11T07:07:14.363Z,176
2022-11-11T07:08:13.892Z,184
2022-11-11T07:09:13.910Z,192
2022-11-11T07:10:14.192Z,200
2022-11-11T07:11:24.270Z,208
2022-11-11T07:12:14.232Z,216
2022-11-11T07:13:14.236Z,220
2022-11-11T07:14:14.493Z,232
2022-11-11T07:15:13.752Z,236
2022-11-11T07:16:14.019Z,248
2022-11-11T07:17:14.149Z,256
2022-11-11T07:18:14.257Z,264
2022-11-11T07:19:14.839Z,268
2022-11-11T07:20:14.098Z,280
2022-11-11T07:21:14.352Z,284
2022-11-11T07:22:14.125Z,292
2022-11-11T07:23:13.886Z,300
2022-11-11T07:24:14.167Z,308
2022-11-11T07:25:14.426Z,316
2022-11-11T07:26:14.464Z,320
2022-11-11T07:27:14.215Z,324
2022-11-11T07:28:14.230Z,332
2022-11-11T07:29:14.240Z,340
2022-11-11T07:30:14.765Z,344
2022-11-11T07:31:14.409Z,348
2022-11-11T07:32:14.552Z,352
2022-11-11T07:33:14.442Z,356
2022-11-11T07:34:14.326Z,360
2022-11-11T07:35:15.329Z,368
2022-11-11T07:36:14.616Z,376
2022-11-11T07:37:14.381Z,380
2022-11-11T07:38:14.653Z,392
2022-11-11T07:39:15.700Z,400
2022-11-11T07:40:14.419Z,408
2022-11-11T07:41:14.711Z,420
2022-11-11T07:42:35.231Z,432
2022-11-11T07:43:14.484Z,440
2022-11-11T07:44:14.740Z,448
2022-11-11T07:45:14.322Z,460
2022-11-11T07:46:15.315Z,464
2022-11-11T07:47:14.553Z,476
2022-11-11T07:48:14.841Z,484
2022-11-11T07:49:14.701Z,492
2022-11-11T07:50:15.762Z,500
2022-11-11T07:51:14.744Z,512
2022-11-11T07:52:14.888Z,524
2022-11-11T07:53:14.913Z,532
2022-11-11T07:54:15.144Z,544
2022-11-11T07:55:14.950Z,556
2022-11-11T07:56:14.960Z,568
2022-11-11T07:57:14.462Z,580
2022-11-11T07:58:14.741Z,588
2022-11-11T07:59:14.497Z,604
2022-11-11T08:00:14.771Z,612
2022-11-11T08:01:16.774Z,624
2022-11-11T08:02:15.296Z,636
2022-11-11T08:03:16.206Z,644
2022-11-11T08:04:14.606Z,652
2022-11-11T08:05:15.233Z,660
2022-11-11T08:06:15.246Z,668
2022-11-11T08:07:18.777Z,676
2022-11-11T08:08:15.372Z,684
2022-11-11T08:09:15.018Z,692
2022-11-11T08:10:14.678Z,700
2022-11-11T08:11:14.966Z,708
2022-11-11T08:12:18.120Z,716
2022-11-11T08:13:15.331Z,728
2022-11-11T08:14:15.055Z,736
2022-11-11T08:15:15.278Z,748
2022-11-11T08:16:14.804Z,756
2022-11-11T08:17:15.357Z,768
2022-11-11T08:18:15.478Z,776
2022-11-11T08:19:14.831Z,788
2022-11-11T08:20:15.109Z,796
2022-11-11T08:21:16.551Z,804
2022-11-11T08:22:15.130Z,812
2022-11-11T08:25:05.264Z,836
2022-11-11T08:25:17.573Z,836
2022-11-11T08:26:16.323Z,844
2022-11-11T08:27:16.368Z,856
2022-11-11T08:28:15.857Z,868
2022-11-11T08:29:16.381Z,880
2022-11-11T08:30:16.427Z,900
2022-11-11T08:31:16.162Z,912
2022-11-11T08:32:16.183Z,928
2022-11-11T08:33:52.718Z,956
2022-11-11T08:34:16.488Z,964
2022-11-11T08:35:16.488Z,980
2022-11-11T08:36:23.918Z,1000
2022-11-11T08:37:16.273Z,1016
2022-11-11T08:38:16.532Z,1032
2022-11-11T08:39:16.503Z,1052
2022-11-11T08:40:16.056Z,1068
2022-11-11T08:41:16.337Z,1088
2022-11-11T08:42:16.621Z,1104
2022-11-11T08:43:16.397Z,1116
2022-11-11T08:44:16.643Z,1128
2022-11-11T08:45:16.417Z,1140
2022-11-11T08:46:16.983Z,1148
2022-11-11T08:47:16.693Z,1156
2022-11-11T08:48:16.195Z,1164
2022-11-11T08:49:16.973Z,1168
2022-11-11T08:50:16.747Z,1164
2022-11-11T08:51:15.985Z,1156
2022-11-11T08:52:16.642Z,1156
2022-11-11T08:53:16.931Z,1160
2022-11-11T08:54:16.543Z,1168
2022-11-11T08:55:16.946Z,1164
2022-11-11T08:56:16.848Z,1168
2022-11-11T08:57:16.877Z,1168
2022-11-11T08:58:22.274Z,1164
2022-11-11T08:59:16.390Z,1156
2022-11-11T09:00:16.921Z,1148
2022-11-11T09:01:17.211Z,1140
2022-11-11T09:02:16.700Z,1136
2022-11-11T09:03:16.709Z,1136
2022-11-11T09:04:58.021Z,1136
2022-11-11T09:05:17.007Z,1136
2022-11-11T09:06:17.210Z,1128
2022-11-11T09:07:16.526Z,1132
2022-11-11T09:08:17.176Z,1144
2022-11-11T09:09:16.807Z,1156
2022-11-11T09:10:16.566Z,1168
2022-11-11T09:11:16.979Z,1176
2022-11-11T09:12:17.120Z,1180
2022-11-11T09:13:16.630Z,1180
2022-11-11T09:14:16.900Z,1160
2022-11-11T09:15:16.665Z,1148
2022-11-11T09:16:17.221Z,1148
2022-11-11T09:17:17.220Z,1152
2022-11-11T09:18:16.705Z,1164
2022-11-11T09:19:16.979Z,1140
2022-11-11T09:20:20.921Z,1136
2022-11-11T09:21:17.006Z,1132
2022-11-11T09:22:17.288Z,1132
2022-11-11T09:23:17.304Z,1132
2022-11-11T09:24:16.683Z,1144
2022-11-11T09:25:17.085Z,1164
2022-11-11T09:26:17.103Z,1180
2022-11-11T09:27:17.492Z,1192
2022-11-11T09:28:17.136Z,1204
2022-11-11T09:29:16.899Z,1220
2022-11-11T09:30:17.181Z,1240
2022-11-11T09:31:50.580Z,1248
2022-11-11T09:32:17.206Z,1256
2022-11-11T09:33:17.218Z,1272
2022-11-11T09:34:17.623Z,1264
2022-11-11T09:35:17.668Z,1280
2022-11-11T09:36:17.992Z,1284
2022-11-11T09:37:17.310Z,1284
2022-11-11T09:38:17.710Z,1292
2022-11-11T09:39:17.419Z,1292
2022-11-11T09:40:17.828Z,1308
2022-11-11T09:41:17.344Z,1312
2022-11-11T09:42:17.597Z,1312
2022-11-11T09:43:17.504Z,1308
2022-11-11T09:44:17.538Z,1292
2022-11-11T09:45:17.479Z,1272
2022-11-11T09:46:17.438Z,1264
2022-11-11T09:47:17.462Z,1264
2022-11-11T09:48:17.758Z,1264
2022-11-11T09:49:17.742Z,1264
2022-11-11T09:50:17.766Z,1260
2022-11-11T09:51:17.775Z,1248
2022-11-11T09:52:18.063Z,1232
2022-11-11T09:53:17.569Z,1216
2022-11-11T09:54:23.855Z,1200
2022-11-11T09:55:17.860Z,1200
2022-11-11T09:56:37.631Z,1196
2022-11-11T09:57:17.902Z,1188
2022-11-11T09:58:17.907Z,1184
2022-11-11T09:59:17.801Z,1180
2022-11-11T10:00:22.833Z,1180
2022-11-11T10:01:18.129Z,1172
2022-11-11T10:02:17.967Z,1168
2022-11-11T10:03:18.025Z,1164
2022-11-11T10:04:18.002Z,1156
2022-11-11T10:05:17.770Z,1148
2022-11-11T10:06:25.032Z,1140
2022-11-11T10:07:17.889Z,1124
2022-11-11T10:08:18.309Z,1108
2022-11-11T10:09:18.089Z,1092
2022-11-11T10:10:17.758Z,1080
2022-11-11T10:11:18.137Z,1048
2022-11-11T10:12:18.129Z,1028
2022-11-11T10:13:17.642Z,1028
2022-11-11T10:14:17.926Z,1020
2022-11-11T10:15:18.059Z,1008
2022-11-11T10:16:17.699Z,1000
2022-11-11T10:17:18.223Z,996
2022-11-11T10:18:24.602Z,988
2022-11-11T10:19:18.261Z,984
2022-11-11T10:20:18.024Z,964
2022-11-11T10:21:18.055Z,940
2022-11-11T10:22:20.645Z,948
2022-11-11T10:23:18.339Z,956
2022-11-11T10:24:18.339Z,952
2022-11-11T10:25:18.370Z,952
2022-11-11T10:26:17.880Z,960
2022-11-11T10:27:18.447Z,960
2022-11-11T10:28:18.067Z,964
2022-11-11T10:29:18.438Z,960
2022-11-11T10:30:18.494Z,952
2022-11-11T10:31:18.332Z,948
2022-11-11T10:32:18.289Z,940
2022-11-11T10:33:18.525Z,932
2022-11-11T10:34:18.521Z,932
2022-11-11T10:35:18.546Z,924
2022-11-11T10:36:18.959Z,912
2022-11-11T10:37:18.325Z,908
2022-11-11T10:38:18.333Z,900
2022-11-11T10:39:18.380Z,896
2022-11-11T10:40:18.873Z,892
2022-11-11T10:41:18.803Z,880
2022-11-11T10:42:18.672Z,872
2022-11-11T10:43:18.684Z,868
2022-11-11T10:44:18.568Z,860
2022-11-11T10:45:18.468Z,856
2022-11-11T10:46:18.424Z,848
2022-11-11T10:47:19.102Z,840
2022-11-11T10:48:18.502Z,844
2022-11-11T10:49:19.038Z,848
2022-11-11T10:50:18.585Z,844
2022-11-11T10:51:18.581Z,856
2022-11-11T10:52:18.830Z,868
2022-11-11T10:53:18.608Z,876
2022-11-11T10:54:18.610Z,884
2022-11-11T10:55:18.368Z,892
2022-11-11T10:56:19.173Z,896
2022-11-11T10:57:18.404Z,900
2022-11-11T10:58:18.944Z,900
2022-11-11T10:59:18.703Z,904
2022-11-11T11:00:18.921Z,908
2022-11-11T11:01:18.977Z,920
2022-11-11T11:02:19.005Z,928
2022-11-11T11:03:19.054Z,928
2022-11-11T11:04:18.803Z,932
2022-11-11T11:05:18.800Z,936
2022-11-11T11:06:19.078Z,940
2022-11-11T11:07:19.453Z,948
2022-11-11T11:08:18.870Z,948
2022-11-11T11:09:19.147Z,956
2022-11-11T11:10:18.410Z,952
2022-11-11T11:11:18.921Z,948
2022-11-11T11:12:19.430Z,952
2022-11-11T11:13:19.190Z,948
2022-11-11T11:14:19.229Z,952
2022-11-11T11:15:18.994Z,948
2022-11-11T11:16:18.868Z,948
2022-11-11T11:17:19.021Z,948
2022-11-11T11:18:19.032Z,944
2022-11-11T11:19:19.428Z,948
2022-11-11T11:20:19.333Z,948
2022-11-11T11:21:19.077Z,940
2022-11-11T11:22:19.759Z,944
2022-11-11T11:23:19.121Z,948
2022-11-11T11:24:19.410Z,952
2022-11-11T11:25:19.168Z,944
2022-11-11T11:26:18.919Z,944
2022-11-11T11:27:19.458Z,940
2022-11-11T11:28:19.706Z,956
2022-11-11T11:29:20.010Z,956
2022-11-11T11:30:23.908Z,960
2022-11-11T11:31:19.512Z,964
2022-11-11T11:32:19.663Z,964
2022-11-11T11:33:19.556Z,964
2022-11-11T11:34:19.577Z,964
2022-11-11T11:35:23.368Z,964
2022-11-11T11:36:20.107Z,968
2022-11-11T11:37:19.366Z,976
2022-11-11T11:38:19.649Z,976
2022-11-11T11:39:19.397Z,976
2022-11-11T11:40:19.502Z,976
2022-11-11T11:41:19.687Z,972
2022-11-11T11:42:19.458Z,980
2022-11-11T11:43:19.732Z,984
2022-11-11T11:44:19.766Z,980
2022-11-11T11:45:19.779Z,984
2022-11-11T11:46:19.775Z,988
2022-11-11T11:47:19.542Z,992
2022-11-11T11:48:50.657Z,988
2022-11-11T11:49:19.598Z,988
2022-11-11T11:50:19.370Z,988
2022-11-11T11:51:20.025Z,988
2022-11-11T11:52:19.634Z,984
2022-11-11T11:53:19.655Z,984
2022-11-11T11:54:19.657Z,980
2022-11-11T11:55:19.698Z,976
2022-11-11T11:56:19.912Z,972
2022-11-11T11:57:19.612Z,964
2022-11-11T11:58:20.078Z,948
2022-11-11T11:59:19.641Z,932
2022-11-11T12:00:20.199Z,924
2022-11-11T12:01:19.944Z,932
2022-11-11T12:02:20.335Z,952
2022-11-11T12:03:19.603Z,960
2022-11-11T12:04:20.008Z,964
2022-11-11T12:05:20.132Z,968
2022-11-11T12:06:20.131Z,980
2022-11-11T12:07:20.344Z,992
2022-11-11T12:08:20.163Z,996
2022-11-11T12:09:20.185Z,1000
2022-11-11T12:10:20.313Z,1004
2022-11-11T12:11:19.964Z,1008
2022-11-11T12:12:19.983Z,1012
2022-11-11T12:13:19.997Z,1016
2022-11-11T12:14:20.292Z,1016
2022-11-11T12:15:20.033Z,1020
2022-11-11T12:16:20.545Z,1020
2022-11-11T12:17:20.066Z,1016
2022-11-11T12:18:20.090Z,1016
2022-11-11T12:19:20.108Z,1000
2022-11-11T12:20:20.079Z,1012
2022-11-11T12:21:19.935Z,1004
2022-11-11T12:22:20.406Z,992
2022-11-11T12:23:20.553Z,988
2022-11-11T12:24:20.175Z,996
2022-11-11T12:25:20.228Z,1000
2022-11-11T12:26:20.257Z,1000
2022-11-11T12:27:20.501Z,1000
2022-11-11T12:28:20.287Z,1016
2022-11-11T12:29:20.546Z,1024
2022-11-11T12:30:20.559Z,1024
2022-11-11T12:31:20.588Z,1020
2022-11-11T12:32:20.979Z,1028
2022-11-11T12:33:20.359Z,1036
2022-11-11T12:34:20.373Z,1036
2022-11-11T12:35:20.650Z,1044
2022-11-11T12:36:20.854Z,1044
2022-11-11T12:37:20.686Z,1052
2022-11-11T12:38:20.682Z,1052
2022-11-11T12:39:20.833Z,1052
2022-11-11T12:40:20.630Z,1056
2022-11-11T12:41:20.498Z,1060
2022-11-11T12:42:20.770Z,1068
2022-11-11T12:43:20.560Z,1072
2022-11-11T12:44:20.551Z,1072
2022-11-11T12:45:20.818Z,1076
2022-11-11T12:46:20.584Z,1088
2022-11-11T12:47:20.858Z,1084
2022-11-11T12:48:20.866Z,1080
2022-11-11T12:49:20.640Z,1068
2022-11-11T12:50:21.038Z,1076
2022-11-11T12:51:20.413Z,1068
2022-11-11T12:52:21.092Z,1060
2022-11-11T12:53:21.072Z,1048
2022-11-11T12:54:20.732Z,1032
2022-11-11T12:55:21.111Z,1004
2022-11-11T12:56:20.753Z,972
2022-11-11T12:57:20.820Z,936
2022-11-11T12:58:20.539Z,904
2022-11-11T12:59:20.298Z,880
2022-11-11T13:00:20.332Z,860
2022-11-11T13:01:21.079Z,840
2022-11-11T13:02:20.896Z,824
2022-11-11T13:03:20.896Z,820
2022-11-11T13:04:21.415Z,812
2022-11-11T13:05:21.175Z,796
2022-11-11T13:06:21.204Z,788
2022-11-11T13:07:20.946Z,776
2022-11-11T13:08:21.116Z,760
2022-11-11T13:09:20.744Z,744
2022-11-11T13:10:21.277Z,728
2022-11-11T13:11:23.810Z,708
2022-11-11T13:12:25.780Z,696
2022-11-11T13:13:21.152Z,680
2022-11-11T13:14:21.368Z,672
2022-11-11T13:15:20.870Z,664
2022-11-11T13:16:21.126Z,664
2022-11-11T13:17:21.132Z,660
2022-11-11T13:18:20.650Z,660
2022-11-11T13:19:27.564Z,656
2022-11-11T13:20:21.466Z,656
2022-11-11T13:21:20.960Z,652
2022-11-11T13:22:21.491Z,648
2022-11-11T13:23:24.932Z,648
2022-11-11T13:24:21.655Z,644
2022-11-11T13:25:26.605Z,640
2022-11-11T13:26:21.068Z,636
2022-11-11T13:27:21.435Z,632
2022-11-11T13:28:21.597Z,632
2022-11-11T13:29:21.366Z,628
2022-11-11T13:30:21.634Z,624
2022-11-11T13:31:21.659Z,620
2022-11-11T13:32:21.430Z,616
2022-11-11T13:33:30.435Z,608
2022-11-11T13:34:21.717Z,604
2022-11-11T13:35:21.966Z,596
2022-11-11T13:36:21.839Z,596
2022-11-11T13:37:21.769Z,592
2022-11-11T13:38:21.266Z,584
2022-11-11T13:39:21.799Z,580
2022-11-11T13:40:21.929Z,576
2022-11-11T13:41:21.329Z,568
2022-11-11T13:42:21.608Z,560
2022-11-11T13:43:22.279Z,556
2022-11-11T13:44:21.636Z,552
2022-11-11T13:45:21.143Z,548
2022-11-11T13:46:21.930Z,544
2022-11-11T13:47:21.710Z,540
2022-11-11T13:48:21.699Z,536
2022-11-11T13:49:21.726Z,528
2022-11-11T13:50:21.487Z,524
2022-11-11T13:51:22.006Z,520
2022-11-11T13:52:29.082Z,516
2022-11-11T13:53:22.238Z,512
2022-11-11T13:54:22.072Z,512
2022-11-11T13:55:22.085Z,508
2022-11-11T13:56:21.767Z,504
2022-11-11T13:57:21.360Z,500
2022-11-11T13:58:21.924Z,500
2022-11-11T13:59:22.280Z,496
2022-11-11T14:00:21.910Z,496
2022-11-11T14:01:22.158Z,492
2022-11-11T14:02:21.713Z,492
2022-11-11T14:03:22.271Z,492
2022-11-11T14:04:22.250Z,488
2022-11-11T14:05:22.015Z,488
2022-11-11T14:06:22.312Z,488
2022-11-11T14:07:27.806Z,484
2022-11-11T14:08:22.324Z,484
2022-11-11T14:09:21.834Z,476
2022-11-11T14:10:22.354Z,476
2022-11-11T14:11:22.425Z,472
2022-11-11T14:12:22.774Z,472